QTR3152 OTHH-EGLL
Flight info
| Callsign | QTR3152 |
|---|---|
| Flight time | N/A |
| Altitude | 32000 |
| Route | ULIKA M430 KSA M321 IVONU Z710 GAS G662 NIMAR L550 NOVPA J981 DATOK T115 PSD/N0489F340 T115 DARUR Q777 RASDA DCT OTHON DCT VAXOS UN128 RDS UL609 MES DCT FSK DCT DISOR DCT LONTA UL608 DOLEV DCT IRDIV DCT PODET DCT SIMBA DCT GASKA DCT MAPOX DCT OTMEC DCT ABNED L980 LOGAN |
| Aircraft | B77W/H-SDE1E2E3FGHIJ2J3J4J5M1RWXY/LB1D1 |
Departure
| Time | N/A |
|---|---|
| Airport | Hamad International Airport (OTHH) |
Arrival
| Time | 2026-05-05 18:32 |
|---|---|
| Airport | London Heathrow Airport (EGLL) |
| Time | Latitude | Longitude | Altitude | Speed | Heading |
|---|---|---|---|---|---|
| 2026-05-05 18:12 | 51.69338 | 0.79962 | 14407 ft | 392 kts | 264° |
| 2026-05-05 18:12 | 51.69029 | 0.75567 | 13794 ft | 396 kts | 264° |
| 2026-05-05 18:12 | 51.68718 | 0.71177 | 13300 ft | 391 kts | 264° |
| 2026-05-05 18:13 | 51.68309 | 0.65447 | 12604 ft | 386 kts | 264° |
| 2026-05-05 18:13 | 51.68001 | 0.61169 | 12097 ft | 382 kts | 264° |
| 2026-05-05 18:13 | 51.67795 | 0.58304 | 11763 ft | 380 kts | 264° |
| 2026-05-05 18:13 | 51.67394 | 0.52749 | 11137 ft | 375 kts | 264° |
| 2026-05-05 18:14 | 51.67194 | 0.49997 | 10838 ft | 372 kts | 264° |
| 2026-05-05 18:14 | 51.66894 | 0.45892 | 10386 ft | 369 kts | 264° |
| 2026-05-05 18:14 | 51.66591 | 0.41798 | 9936 ft | 366 kts | 264° |
| 2026-05-05 18:14 | 51.66293 | 0.37760 | 9605 ft | 359 kts | 264° |
| 2026-05-05 18:15 | 51.66000 | 0.33819 | 9426 ft | 349 kts | 264° |
| 2026-05-05 18:15 | 51.65717 | 0.30013 | 9305 ft | 333 kts | 264° |
| 2026-05-05 18:15 | 51.65449 | 0.26442 | 9125 ft | 311 kts | 264° |
| 2026-05-05 18:15 | 51.65198 | 0.23100 | 8975 ft | 292 kts | 264° |
| 2026-05-05 18:16 | 51.64959 | 0.19928 | 8757 ft | 278 kts | 265° |
| 2026-05-05 18:16 | 51.64731 | 0.16921 | 8649 ft | 264 kts | 265° |
| 2026-05-05 18:16 | 51.64515 | 0.14086 | 8444 ft | 254 kts | 265° |
| 2026-05-05 18:16 | 51.64297 | 0.11269 | 8166 ft | 247 kts | 265° |
| 2026-05-05 18:17 | 51.64084 | 0.08555 | 8002 ft | 243 kts | 265° |
| 2026-05-05 18:17 | 51.63859 | 0.05884 | 7988 ft | 246 kts | 262° |
| 2026-05-05 18:17 | 51.63548 | 0.03169 | 7995 ft | 246 kts | 261° |
| 2026-05-05 18:17 | 51.63221 | 0.00467 | 7969 ft | 247 kts | 261° |
| 2026-05-05 18:18 | 51.62888 | -0.02240 | 7942 ft | 245 kts | 261° |
| 2026-05-05 18:18 | 51.62556 | -0.04924 | 7938 ft | 244 kts | 261° |
| 2026-05-05 18:18 | 51.62239 | -0.07597 | 7932 ft | 243 kts | 262° |
| 2026-05-05 18:18 | 51.61958 | -0.10272 | 8011 ft | 242 kts | 263° |
| 2026-05-05 18:19 | 51.61679 | -0.12941 | 8015 ft | 242 kts | 263° |
| 2026-05-05 18:19 | 51.61402 | -0.15605 | 8005 ft | 242 kts | 263° |
| 2026-05-05 18:19 | 51.61124 | -0.18277 | 8022 ft | 242 kts | 263° |
| 2026-05-05 18:19 | 51.60847 | -0.20926 | 8020 ft | 244 kts | 263° |
| 2026-05-05 18:20 | 51.60566 | -0.23626 | 8018 ft | 245 kts | 263° |
| 2026-05-05 18:20 | 51.60286 | -0.26336 | 8032 ft | 247 kts | 263° |
| 2026-05-05 18:20 | 51.60003 | -0.29076 | 7941 ft | 249 kts | 263° |
| 2026-05-05 18:20 | 51.59719 | -0.31829 | 7937 ft | 250 kts | 263° |
| 2026-05-05 18:21 | 51.59434 | -0.34588 | 7941 ft | 250 kts | 263° |
| 2026-05-05 18:21 | 51.59151 | -0.37338 | 7942 ft | 249 kts | 263° |
| 2026-05-05 18:21 | 51.58866 | -0.40085 | 7925 ft | 248 kts | 262° |
| 2026-05-05 18:21 | 51.58585 | -0.42807 | 7931 ft | 245 kts | 262° |
| 2026-05-05 18:22 | 51.58307 | -0.45497 | 7930 ft | 243 kts | 263° |
| 2026-05-05 18:22 | 51.58031 | -0.48172 | 7931 ft | 242 kts | 262° |
| 2026-05-05 18:22 | 51.57755 | -0.50838 | 7932 ft | 241 kts | 262° |
| 2026-05-05 18:22 | 51.57480 | -0.53498 | 7937 ft | 241 kts | 262° |
| 2026-05-05 18:23 | 51.57204 | -0.56156 | 7944 ft | 242 kts | 262° |
| 2026-05-05 18:23 | 51.56928 | -0.58827 | 7948 ft | 243 kts | 262° |
| 2026-05-05 18:23 | 51.56656 | -0.61476 | 7945 ft | 244 kts | 262° |
| 2026-05-05 18:23 | 51.56377 | -0.64178 | 7669 ft | 246 kts | 262° |
| 2026-05-05 18:24 | 51.56095 | -0.66935 | 7212 ft | 254 kts | 262° |
| 2026-05-05 18:24 | 51.55808 | -0.69754 | 6726 ft | 253 kts | 262° |
| 2026-05-05 18:24 | 51.55527 | -0.72511 | 6203 ft | 247 kts | 262° |
| 2026-05-05 18:24 | 51.55252 | -0.75194 | 5674 ft | 241 kts | 262° |
| 2026-05-05 18:25 | 51.54981 | -0.77820 | 5165 ft | 235 kts | 262° |
| 2026-05-05 18:25 | 51.54806 | -0.79519 | 4939 ft | 233 kts | 262° |
| 2026-05-05 18:25 | 51.54422 | -0.83015 | 4471 ft | 239 kts | 256° |
| 2026-05-05 18:25 | 51.53607 | -0.85233 | 4114 ft | 225 kts | 221° |
| 2026-05-05 18:26 | 51.52276 | -0.86204 | 4043 ft | 204 kts | 187° |
| 2026-05-05 18:26 | 51.50883 | -0.86364 | 4004 ft | 198 kts | 181° |
| 2026-05-05 18:26 | 51.49534 | -0.86122 | 3983 ft | 196 kts | 154° |
| 2026-05-05 18:26 | 51.48529 | -0.84710 | 4019 ft | 195 kts | 122° |
| 2026-05-05 18:27 | 51.47856 | -0.82843 | 3996 ft | 195 kts | 104° |
| 2026-05-05 18:27 | 51.47699 | -0.80744 | 4010 ft | 188 kts | 89° |
| 2026-05-05 18:27 | 51.47660 | -0.78614 | 3785 ft | 193 kts | 88° |
| 2026-05-05 18:27 | 51.47651 | -0.76527 | 3520 ft | 178 kts | 86° |
| 2026-05-05 18:28 | 51.47660 | -0.72832 | 3125 ft | 164 kts | 86° |
| 2026-05-05 18:28 | 51.47669 | -0.70996 | 2898 ft | 164 kts | 86° |
| 2026-05-05 18:28 | 51.47676 | -0.69161 | 2677 ft | 165 kts | 86° |
| 2026-05-05 18:29 | 51.47681 | -0.67331 | 2436 ft | 162 kts | 86° |
| 2026-05-05 18:29 | 51.47687 | -0.65531 | 2215 ft | 162 kts | 86° |
| 2026-05-05 18:29 | 51.47693 | -0.63742 | 1999 ft | 162 kts | 86° |
| 2026-05-05 18:29 | 51.47702 | -0.61941 | 1776 ft | 161 kts | 86° |
| 2026-05-05 18:30 | 51.47707 | -0.60173 | 1563 ft | 160 kts | 86° |
| 2026-05-05 18:30 | 51.47713 | -0.58436 | 1345 ft | 152 kts | 87° |
| 2026-05-05 18:30 | 51.47720 | -0.56779 | 1147 ft | 150 kts | 86° |
| 2026-05-05 18:30 | 51.47725 | -0.55107 | 934 ft | 152 kts | 86° |
| 2026-05-05 18:31 | 51.47730 | -0.53433 | 724 ft | 149 kts | 87° |
| 2026-05-05 18:31 | 51.47735 | -0.51769 | 537 ft | 149 kts | 88° |
| 2026-05-05 18:31 | 51.47739 | -0.50111 | 322 ft | 148 kts | 88° |
| 2026-05-05 18:31 | 51.47751 | -0.48460 | 137 ft | 147 kts | 89° |
| 2026-05-05 18:32 | 51.47757 | -0.46967 | 98 ft | 114 kts | 90° |
| 2026-05-05 18:32 | 51.47758 | -0.46002 | 93 ft | 62 kts | 90° |
| 2026-05-05 18:32 | 51.47758 | -0.45328 | 94 ft | 55 kts | 90° |
| 2026-05-05 18:32 | 51.47759 | -0.44932 | 98 ft | 21 kts | 103° |
| 2026-05-05 18:33 | 51.47670 | -0.44811 | 100 ft | 12 kts | 148° |
| 2026-05-05 18:33 | 51.47630 | -0.44782 | 98 ft | 1 kts | 156° |
| 2026-05-05 18:33 | 51.47605 | -0.44734 | 95 ft | 11 kts | 116° |
| 2026-05-05 18:33 | 51.47556 | -0.44664 | 92 ft | 8 kts | 167° |
| 2026-05-05 18:34 | 51.47512 | -0.44616 | 93 ft | 8 kts | 121° |
| 2026-05-05 18:34 | 51.47505 | -0.44593 | 95 ft | 0 kts | 117° |
| 2026-05-05 18:34 | 51.47504 | -0.44562 | 95 ft | 0 kts | 90° |
| 2026-05-05 18:35 | 51.47504 | -0.44555 | 95 ft | 2 kts | 90° |
| 2026-05-05 18:35 | 51.47504 | -0.44512 | 93 ft | 3 kts | 90° |
| 2026-05-05 18:35 | 51.47504 | -0.44481 | 92 ft | 3 kts | 89° |
| 2026-05-05 18:35 | 51.47504 | -0.44447 | 92 ft | 3 kts | 89° |
| 2026-05-05 18:36 | 51.47505 | -0.44409 | 93 ft | 3 kts | 89° |
| 2026-05-05 18:36 | 51.47505 | -0.44348 | 93 ft | 10 kts | 89° |
| 2026-05-05 18:36 | 51.47506 | -0.44238 | 93 ft | 10 kts | 89° |
| 2026-05-05 18:36 | 51.47507 | -0.44127 | 93 ft | 10 kts | 89° |
| 2026-05-05 18:37 | 51.47462 | -0.44059 | 93 ft | 10 kts | 171° |
| 2026-05-05 18:37 | 51.47390 | -0.44062 | 93 ft | 10 kts | 181° |
| 2026-05-05 18:37 | 51.47318 | -0.44061 | 93 ft | 10 kts | 180° |
| 2026-05-05 18:37 | 51.47246 | -0.44061 | 93 ft | 10 kts | 180° |
| 2026-05-05 18:38 | 51.47174 | -0.44060 | 93 ft | 10 kts | 180° |
| 2026-05-05 18:38 | 51.47102 | -0.44060 | 93 ft | 10 kts | 180° |
| 2026-05-05 18:38 | 51.47030 | -0.44059 | 93 ft | 10 kts | 178° |
| 2026-05-05 18:38 | 51.46958 | -0.44058 | 92 ft | 10 kts | 179° |
| 2026-05-05 18:39 | 51.46885 | -0.44057 | 93 ft | 10 kts | 178° |
| 2026-05-05 18:39 | 51.46813 | -0.44055 | 93 ft | 10 kts | 182° |
| 2026-05-05 18:39 | 51.46741 | -0.44058 | 90 ft | 10 kts | 180° |
| 2026-05-05 18:39 | 51.46671 | -0.44057 | 87 ft | 8 kts | 179° |
| 2026-05-05 18:40 | 51.46637 | -0.44056 | 87 ft | 0 kts | 179° |
| 2026-05-05 18:40 | 51.46629 | -0.44056 | 87 ft | 0 kts | 179° |
| 2026-05-05 18:43 | 51.46617 | -0.44056 | 87 ft | 6 kts | 179° |
| 2026-05-05 18:43 | 51.46551 | -0.44056 | 88 ft | 10 kts | 180° |
| 2026-05-05 18:43 | 51.46477 | -0.44060 | 87 ft | 11 kts | 191° |
| 2026-05-05 18:43 | 51.46409 | -0.44115 | 93 ft | 11 kts | 210° |
| 2026-05-05 18:44 | 51.46364 | -0.44157 | 94 ft | 0 kts | 210° |
| 2026-05-05 18:45 | 51.46362 | -0.44159 | 94 ft | 3 kts | 210° |
| 2026-05-05 18:45 | 51.46342 | -0.44187 | 95 ft | 5 kts | 230° |
| 2026-05-05 18:46 | 51.46330 | -0.44290 | 94 ft | 12 kts | 269° |
| 2026-05-05 18:46 | 51.46329 | -0.44425 | 94 ft | 12 kts | 269° |
| 2026-05-05 18:46 | 51.46328 | -0.44559 | 94 ft | 11 kts | 269° |
| 2026-05-05 18:46 | 51.46307 | -0.44664 | 92 ft | 10 kts | 224° |
| 2026-05-05 18:47 | 51.46254 | -0.44741 | 95 ft | 10 kts | 220° |
| 2026-05-05 18:47 | 51.46200 | -0.44814 | 96 ft | 10 kts | 220° |
| 2026-05-05 18:47 | 51.46150 | -0.44888 | 96 ft | 10 kts | 223° |
| 2026-05-05 18:47 | 51.46103 | -0.44956 | 95 ft | 6 kts | 219° |
| 2026-05-05 18:48 | 51.46062 | -0.44955 | 95 ft | 6 kts | 143° |
| 2026-05-05 18:48 | 51.46036 | -0.44906 | 96 ft | 5 kts | 130° |
| 2026-05-05 18:48 | 51.46024 | -0.44883 | 94 ft | 0 kts | 131° |